sensor_id;sensor_type;location;lat;lon;timestamp;pressure;altitude;pressure_sealevel;temperature;humidity
70815;BME280;58428;49.478;10.986;2023-05-16T00:00:22;98028.38;;;12.10;100.00
70815;BME280;58428;49.478;10.986;2023-05-16T00:02:49;98024.66;;;12.14;100.00
70815;BME280;58428;49.478;10.986;2023-05-16T00:05:15;98027.09;;;12.19;100.00
70815;BME280;58428;49.478;10.986;2023-05-16T00:07:43;98021.44;;;12.24;100.00
70815;BME280;58428;49.478;10.986;2023-05-16T00:10:11;98029.59;;;12.24;100.00
70815;BME280;58428;49.478;10.986;2023-05-16T00:12:37;98026.44;;;12.22;100.00
70815;BME280;58428;49.478;10.986;2023-05-16T00:15:06;98021.59;;;12.15;100.00
70815;BME280;58428;49.478;10.986;2023-05-16T00:17:33;98025.44;;;12.14;100.00
70815;BME280;58428;49.478;10.986;2023-05-16T00:20:01;98035.59;;;12.17;100.00
70815;BME280;58428;49.478;10.986;2023-05-16T00:22:37;98035.34;;;12.22;100.00
70815;BME280;58428;49.478;10.986;2023-05-16T00:25:03;98024.94;;;12.24;100.00
70815;BME280;58428;49.478;10.986;2023-05-16T00:27:35;98023.81;;;12.25;100.00
70815;BME280;58428;49.478;10.986;2023-05-16T00:30:02;98030.47;;;12.28;100.00
70815;BME280;58428;49.478;10.986;2023-05-16T00:32:27;98028.53;;;12.28;100.00
70815;BME280;58428;49.478;10.986;2023-05-16T00:34:54;98025.03;;;12.28;100.00
70815;BME280;58428;49.478;10.986;2023-05-16T00:37:19;98025.94;;;12.32;100.00
70815;BME280;58428;49.478;10.986;2023-05-16T00:39:45;98023.56;;;12.30;100.00
70815;BME280;58428;49.478;10.986;2023-05-16T00:42:10;98027.84;;;12.31;100.00
70815;BME280;58428;49.478;10.986;2023-05-16T00:44:36;98028.53;;;12.28;100.00
70815;BME280;58428;49.478;10.986;2023-05-16T00:47:03;98026.16;;;12.27;100.00
70815;BME280;58428;49.478;10.986;2023-05-16T00:49:31;98028.69;;;12.20;100.00
70815;BME280;58428;49.478;10.986;2023-05-16T00:51:57;98026.47;;;12.10;100.00
70815;BME280;58428;49.478;10.986;2023-05-16T00:54:22;98023.88;;;12.02;100.00
70815;BME280;58428;49.478;10.986;2023-05-16T00:56:51;98025.97;;;11.93;100.00
70815;BME280;58428;49.478;10.986;2023-05-16T00:59:17;98024.03;;;11.93;100.00
70815;BME280;58428;49.478;10.986;2023-05-16T01:01:45;98027.53;;;11.94;100.00
70815;BME280;58428;49.478;10.986;2023-05-16T01:04:11;98020.00;;;11.87;100.00
70815;BME280;58428;49.478;10.986;2023-05-16T01:06:36;98024.22;;;11.73;100.00
70815;BME280;58428;49.478;10.986;2023-05-16T01:09:02;98033.13;;;11.74;100.00
70815;BME280;58428;49.478;10.986;2023-05-16T01:14:21;98024.28;;;11.76;100.00
70815;BME280;58428;49.478;10.986;2023-05-16T01:17:02;98025.34;;;11.72;100.00
70815;BME280;58428;49.478;10.986;2023-05-16T01:27:37;98032.81;;;11.51;100.00
70815;BME280;58428;49.478;10.986;2023-05-16T01:30:21;98040.59;;;11.41;100.00
70815;BME280;58428;49.478;10.986;2023-05-16T01:32:46;98041.72;;;11.40;100.00
70815;BME280;58428;49.478;10.986;2023-05-16T01:35:13;98043.13;;;11.46;100.00
70815;BME280;58428;49.478;10.986;2023-05-16T01:38:09;98045.00;;;11.45;100.00
70815;BME280;58428;49.478;10.986;2023-05-16T01:40:51;98043.75;;;11.55;100.00
70815;BME280;58428;49.478;10.986;2023-05-16T01:43:28;98039.81;;;11.64;100.00
70815;BME280;58428;49.478;10.986;2023-05-16T01:46:01;98041.16;;;11.70;100.00
70815;BME280;58428;49.478;10.986;2023-05-16T01:48:37;98044.88;;;11.77;100.00
70815;BME280;58428;49.478;10.986;2023-05-16T01:51:05;98037.63;;;11.81;100.00
70815;BME280;58428;49.478;10.986;2023-05-16T01:53:37;98044.72;;;11.86;100.00
70815;BME280;58428;49.478;10.986;2023-05-16T01:56:04;98045.31;;;11.79;100.00
70815;BME280;58428;49.478;10.986;2023-05-16T01:58:34;98045.91;;;11.73;100.00
70815;BME280;58428;49.478;10.986;2023-05-16T02:01:03;98042.38;;;11.73;100.00
70815;BME280;58428;49.478;10.986;2023-05-16T02:03:29;98048.34;;;11.78;100.00
70815;BME280;58428;49.478;10.986;2023-05-16T02:05:55;98038.78;;;11.69;100.00
70815;BME280;58428;49.478;10.986;2023-05-16T02:08:21;98047.47;;;11.62;100.00
70815;BME280;58428;49.478;10.986;2023-05-16T02:10:47;98045.56;;;11.63;100.00
70815;BME280;58428;49.478;10.986;2023-05-16T02:13:13;98050.84;;;11.59;100.00
70815;BME280;58428;49.478;10.986;2023-05-16T02:15:38;98050.66;;;11.52;100.00
70815;BME280;58428;49.478;10.986;2023-05-16T02:18:03;98047.25;;;11.55;100.00
70815;BME280;58428;49.478;10.986;2023-05-16T02:20:29;98049.75;;;11.60;100.00
70815;BME280;58428;49.478;10.986;2023-05-16T02:22:55;98053.47;;;11.56;100.00
70815;BME280;58428;49.478;10.986;2023-05-16T02:25:20;98057.88;;;11.60;100.00
70815;BME280;58428;49.478;10.986;2023-05-16T02:27:46;98052.91;;;11.62;100.00
70815;BME280;58428;49.478;10.986;2023-05-16T02:30:13;98049.97;;;11.67;100.00
70815;BME280;58428;49.478;10.986;2023-05-16T02:32:39;98046.03;;;11.53;100.00
70815;BME280;58428;49.478;10.986;2023-05-16T02:35:05;98042.09;;;11.50;100.00
70815;BME280;58428;49.478;10.986;2023-05-16T02:37:32;98046.72;;;11.50;100.00
70815;BME280;58428;49.478;10.986;2023-05-16T02:39:57;98043.19;;;11.38;100.00
70815;BME280;58428;49.478;10.986;2023-05-16T02:42:26;98046.00;;;11.29;100.00
70815;BME280;58428;49.478;10.986;2023-05-16T02:44:54;98041.25;;;11.26;100.00
70815;BME280;58428;49.478;10.986;2023-05-16T02:47:21;98040.28;;;11.19;100.00
70815;BME280;58428;49.478;10.986;2023-05-16T02:49:46;98041.38;;;11.06;100.00
70815;BME280;58428;49.478;10.986;2023-05-16T02:52:11;98039.69;;;11.02;100.00
70815;BME280;58428;49.478;10.986;2023-05-16T02:54:37;98044.75;;;11.03;100.00
70815;BME280;58428;49.478;10.986;2023-05-16T02:57:03;98041.38;;;10.94;100.00
70815;BME280;58428;49.478;10.986;2023-05-16T02:59:30;98038.41;;;10.87;100.00
70815;BME280;58428;49.478;10.986;2023-05-16T03:01:56;98045.56;;;10.92;100.00
70815;BME280;58428;49.478;10.986;2023-05-16T03:04:22;98037.97;;;10.97;100.00
70815;BME280;58428;49.478;10.986;2023-05-16T03:06:48;98049.94;;;10.96;100.00
70815;BME280;58428;49.478;10.986;2023-05-16T03:09:16;98044.41;;;10.93;100.00
70815;BME280;58428;49.478;10.986;2023-05-16T03:11:44;98051.75;;;10.92;100.00
70815;BME280;58428;49.478;10.986;2023-05-16T03:14:11;98048.47;;;10.99;100.00
70815;BME280;58428;49.478;10.986;2023-05-16T03:16:36;98056.47;;;11.07;100.00
70815;BME280;58428;49.478;10.986;2023-05-16T03:19:06;98059.75;;;11.12;100.00
70815;BME280;58428;49.478;10.986;2023-05-16T03:21:31;98060.34;;;11.18;100.00
70815;BME280;58428;49.478;10.986;2023-05-16T03:23:56;98060.56;;;11.25;100.00
70815;BME280;58428;49.478;10.986;2023-05-16T03:26:23;98062.38;;;11.33;100.00
70815;BME280;58428;49.478;10.986;2023-05-16T03:28:49;98066.44;;;11.38;100.00
70815;BME280;58428;49.478;10.986;2023-05-16T03:31:15;98067.88;;;11.36;100.00
70815;BME280;58428;49.478;10.986;2023-05-16T03:33:41;98059.75;;;11.24;100.00
70815;BME280;58428;49.478;10.986;2023-05-16T03:36:07;98066.19;;;11.20;100.00
70815;BME280;58428;49.478;10.986;2023-05-16T03:38:32;98065.53;;;11.23;100.00
70815;BME280;58428;49.478;10.986;2023-05-16T03:40:59;98068.47;;;11.30;100.00
70815;BME280;58428;49.478;10.986;2023-05-16T03:43:24;98073.78;;;11.38;100.00
70815;BME280;58428;49.478;10.986;2023-05-16T03:45:50;98074.44;;;11.35;100.00
70815;BME280;58428;49.478;10.986;2023-05-16T03:48:15;98085.03;;;11.28;100.00
70815;BME280;58428;49.478;10.986;2023-05-16T03:50:41;98079.28;;;11.30;100.00
70815;BME280;58428;49.478;10.986;2023-05-16T03:53:06;98086.31;;;11.31;100.00
70815;BME280;58428;49.478;10.986;2023-05-16T03:55:33;98087.75;;;11.16;100.00
70815;BME280;58428;49.478;10.986;2023-05-16T03:57:59;98082.91;;;11.22;100.00
70815;BME280;58428;49.478;10.986;2023-05-16T04:00:24;98080.53;;;11.20;100.00
70815;BME280;58428;49.478;10.986;2023-05-16T04:02:50;98086.63;;;11.17;100.00
70815;BME280;58428;49.478;10.986;2023-05-16T04:05:16;98080.31;;;11.25;100.00
70815;BME280;58428;49.478;10.986;2023-05-16T04:07:41;98085.03;;;11.28;100.00
70815;BME280;58428;49.478;10.986;2023-05-16T04:10:07;98082.56;;;11.35;100.00
70815;BME280;58428;49.478;10.986;2023-05-16T04:12:33;98082.16;;;11.45;100.00
70815;BME280;58428;49.478;10.986;2023-05-16T04:14:58;98083.94;;;11.53;100.00
70815;BME280;58428;49.478;10.986;2023-05-16T04:17:24;98081.47;;;11.60;100.00
70815;BME280;58428;49.478;10.986;2023-05-16T04:19:49;98086.66;;;11.65;100.00
70815;BME280;58428;49.478;10.986;2023-05-16T04:22:14;98096.50;;;11.69;100.00
70815;BME280;58428;49.478;10.986;2023-05-16T04:24:41;98089.00;;;11.78;100.00
70815;BME280;58428;49.478;10.986;2023-05-16T04:27:07;98088.78;;;11.83;100.00
70815;BME280;58428;49.478;10.986;2023-05-16T04:29:33;98100.53;;;11.75;100.00
70815;BME280;58428;49.478;10.986;2023-05-16T04:31:59;98094.69;;;11.73;100.00
70815;BME280;58428;49.478;10.986;2023-05-16T04:34:28;98092.94;;;11.80;100.00
70815;BME280;58428;49.478;10.986;2023-05-16T04:36:54;98092.41;;;11.75;100.00
70815;BME280;58428;49.478;10.986;2023-05-16T04:39:20;98089.25;;;11.73;100.00
70815;BME280;58428;49.478;10.986;2023-05-16T04:41:46;98093.31;;;11.79;100.00
70815;BME280;58428;49.478;10.986;2023-05-16T04:44:13;98089.47;;;11.80;100.00
70815;BME280;58428;49.478;10.986;2023-05-16T04:46:39;98094.69;;;11.73;100.00
70815;BME280;58428;49.478;10.986;2023-05-16T04:49:05;98094.09;;;11.79;100.00
70815;BME280;58428;49.478;10.986;2023-05-16T04:51:31;98093.50;;;11.86;100.00
70815;BME280;58428;49.478;10.986;2023-05-16T04:53:58;98090.69;;;11.94;100.00
70815;BME280;58428;49.478;10.986;2023-05-16T04:56:23;98092.59;;;11.94;100.00
70815;BME280;58428;49.478;10.986;2023-05-16T04:58:50;98095.88;;;11.99;100.00
70815;BME280;58428;49.478;10.986;2023-05-16T05:01:15;98093.59;;;12.01;100.00
70815;BME280;58428;49.478;10.986;2023-05-16T05:03:41;98103.22;;;11.99;100.00
70815;BME280;58428;49.478;10.986;2023-05-16T05:06:07;98098.25;;;12.01;100.00
70815;BME280;58428;49.478;10.986;2023-05-16T05:08:32;98099.28;;;11.96;100.00
70815;BME280;58428;49.478;10.986;2023-05-16T05:11:01;98108.63;;;11.99;100.00
70815;BME280;58428;49.478;10.986;2023-05-16T05:13:27;98104.25;;;11.94;100.00
70815;BME280;58428;49.478;10.986;2023-05-16T05:15:52;98104.00;;;11.99;100.00
70815;BME280;58428;49.478;10.986;2023-05-16T05:18:18;98106.38;;;12.01;100.00
70815;BME280;58428;49.478;10.986;2023-05-16T05:20:43;98111.66;;;12.09;100.00
70815;BME280;58428;49.478;10.986;2023-05-16T05:23:09;98108.56;;;12.22;100.00
70815;BME280;58428;49.478;10.986;2023-05-16T05:25:38;98114.75;;;12.35;100.00
70815;BME280;58428;49.478;10.986;2023-05-16T05:28:04;98123.31;;;12.37;100.00
70815;BME280;58428;49.478;10.986;2023-05-16T05:30:29;98118.44;;;12.42;100.00
70815;BME280;58428;49.478;10.986;2023-05-16T05:32:55;98121.53;;;12.41;100.00
70815;BME280;58428;49.478;10.986;2023-05-16T05:35:20;98126.84;;;12.37;100.00
70815;BME280;58428;49.478;10.986;2023-05-16T05:37:46;98124.88;;;12.49;100.00
70815;BME280;58428;49.478;10.986;2023-05-16T05:40:13;98126.66;;;12.57;100.00
70815;BME280;58428;49.478;10.986;2023-05-16T05:42:39;98126.41;;;12.62;100.00
70815;BME280;58428;49.478;10.986;2023-05-16T05:45:04;98120.84;;;12.71;100.00
70815;BME280;58428;49.478;10.986;2023-05-16T05:47:31;98121.03;;;12.78;100.00
70815;BME280;58428;49.478;10.986;2023-05-16T05:49:58;98116.69;;;12.88;100.00
70815;BME280;58428;49.478;10.986;2023-05-16T05:52:24;98123.22;;;12.99;100.00
70815;BME280;58428;49.478;10.986;2023-05-16T05:54:50;98122.88;;;13.01;100.00
70815;BME280;58428;49.478;10.986;2023-05-16T05:57:15;98116.66;;;13.16;100.00
70815;BME280;58428;49.478;10.986;2023-05-16T05:59:42;98113.59;;;13.17;100.00
70815;BME280;58428;49.478;10.986;2023-05-16T06:02:07;98109.03;;;13.21;100.00
70815;BME280;58428;49.478;10.986;2023-05-16T06:04:33;98111.31;;;13.19;100.00
70815;BME280;58428;49.478;10.986;2023-05-16T06:06:58;98114.78;;;13.04;100.00
70815;BME280;58428;49.478;10.986;2023-05-16T06:09:23;98112.63;;;13.10;100.00
70815;BME280;58428;49.478;10.986;2023-05-16T06:11:49;98114.13;;;13.07;100.00
70815;BME280;58428;49.478;10.986;2023-05-16T06:14:14;98115.91;;;12.88;100.00
70815;BME280;58428;49.478;10.986;2023-05-16T06:16:41;98120.91;;;12.86;100.00
70815;BME280;58428;49.478;10.986;2023-05-16T06:19:07;98118.19;;;12.86;100.00
70815;BME280;58428;49.478;10.986;2023-05-16T06:21:32;98124.34;;;12.98;100.00
70815;BME280;58428;49.478;10.986;2023-05-16T06:23:58;98126.03;;;13.03;100.00
70815;BME280;58428;49.478;10.986;2023-05-16T06:26:24;98120.53;;;13.15;100.00
70815;BME280;58428;49.478;10.986;2023-05-16T06:28:50;98115.34;;;13.10;100.00
70815;BME280;58428;49.478;10.986;2023-05-16T06:31:15;98125.53;;;13.13;100.00
70815;BME280;58428;49.478;10.986;2023-05-16T06:33:41;98122.63;;;13.21;100.00
70815;BME280;58428;49.478;10.986;2023-05-16T06:36:07;98121.06;;;13.20;100.00
70815;BME280;58428;49.478;10.986;2023-05-16T06:38:32;98115.25;;;13.37;100.00
70815;BME280;58428;49.478;10.986;2023-05-16T06:40:58;98118.75;;;13.53;100.00
70815;BME280;58428;49.478;10.986;2023-05-16T06:43:24;98111.44;;;13.53;100.00
70815;BME280;58428;49.478;10.986;2023-05-16T06:45:50;98123.06;;;13.54;100.00
70815;BME280;58428;49.478;10.986;2023-05-16T06:48:17;98129.19;;;13.66;100.00
70815;BME280;58428;49.478;10.986;2023-05-16T06:50:48;98126.13;;;13.83;100.00
70815;BME280;58428;49.478;10.986;2023-05-16T06:53:16;98124.78;;;13.92;100.00
70815;BME280;58428;49.478;10.986;2023-05-16T06:55:42;98126.69;;;14.07;100.00
70815;BME280;58428;49.478;10.986;2023-05-16T06:58:07;98131.63;;;14.17;100.00
70815;BME280;58428;49.478;10.986;2023-05-16T07:00:33;98124.63;;;14.35;100.00
70815;BME280;58428;49.478;10.986;2023-05-16T07:02:58;98128.41;;;14.49;100.00
70815;BME280;58428;49.478;10.986;2023-05-16T07:05:23;98131.59;;;14.70;100.00
70815;BME280;58428;49.478;10.986;2023-05-16T07:07:49;98133.09;;;14.67;100.00
70815;BME280;58428;49.478;10.986;2023-05-16T07:10:15;98130.66;;;14.62;100.00
70815;BME280;58428;49.478;10.986;2023-05-16T07:12:40;98131.06;;;14.64;100.00
70815;BME280;58428;49.478;10.986;2023-05-16T07:15:06;98138.38;;;14.60;100.00
70815;BME280;58428;49.478;10.986;2023-05-16T07:17:33;98136.78;;;14.59;100.00
70815;BME280;58428;49.478;10.986;2023-05-16T07:19:58;98139.09;;;14.57;100.00
70815;BME280;58428;49.478;10.986;2023-05-16T07:22:24;98138.97;;;14.50;100.00
70815;BME280;58428;49.478;10.986;2023-05-16T07:24:50;98141.63;;;14.66;100.00
70815;BME280;58428;49.478;10.986;2023-05-16T07:27:18;98134.06;;;14.78;100.00
70815;BME280;58428;49.478;10.986;2023-05-16T07:29:43;98137.09;;;14.73;100.00
70815;BME280;58428;49.478;10.986;2023-05-16T07:32:09;98136.56;;;14.86;100.00
70815;BME280;58428;49.478;10.986;2023-05-16T07:34:34;98137.47;;;14.90;100.00
70815;BME280;58428;49.478;10.986;2023-05-16T07:37:00;98137.75;;;15.07;100.00
70815;BME280;58428;49.478;10.986;2023-05-16T07:39:25;98133.69;;;15.17;100.00
70815;BME280;58428;49.478;10.986;2023-05-16T07:41:50;98130.56;;;15.37;100.00
70815;BME280;58428;49.478;10.986;2023-05-16T07:44:16;98139.13;;;15.36;100.00
70815;BME280;58428;49.478;10.986;2023-05-16T07:46:42;98135.28;;;15.40;100.00
70815;BME280;58428;49.478;10.986;2023-05-16T07:49:09;98137.38;;;15.47;100.00
70815;BME280;58428;49.478;10.986;2023-05-16T07:51:34;98133.66;;;15.80;100.00
70815;BME280;58428;49.478;10.986;2023-05-16T07:54:00;98134.97;;;16.15;100.00
70815;BME280;58428;49.478;10.986;2023-05-16T07:56:27;98141.13;;;16.34;100.00
70815;BME280;58428;49.478;10.986;2023-05-16T07:58:52;98148.16;;;16.35;100.00
70815;BME280;58428;49.478;10.986;2023-05-16T08:01:18;98141.84;;;16.31;100.00
70815;BME280;58428;49.478;10.986;2023-05-16T08:03:43;98145.22;;;16.21;100.00
70815;BME280;58428;49.478;10.986;2023-05-16T08:06:08;98147.34;;;15.61;100.00
70815;BME280;58428;49.478;10.986;2023-05-16T08:08:34;98145.28;;;15.55;100.00
70815;BME280;58428;49.478;10.986;2023-05-16T08:10:59;98153.84;;;15.53;100.00
70815;BME280;58428;49.478;10.986;2023-05-16T08:13:25;98151.00;;;15.69;100.00
70815;BME280;58428;49.478;10.986;2023-05-16T08:15:50;98150.84;;;15.84;100.00
70815;BME280;58428;49.478;10.986;2023-05-16T08:18:16;98144.63;;;16.09;100.00
70815;BME280;58428;49.478;10.986;2023-05-16T08:20:41;98149.13;;;16.21;100.00
70815;BME280;58428;49.478;10.986;2023-05-16T08:23:08;98147.41;;;16.13;100.00
70815;BME280;58428;49.478;10.986;2023-05-16T08:25:34;98146.88;;;16.26;100.00
70815;BME280;58428;49.478;10.986;2023-05-16T08:28:00;98150.03;;;16.31;100.00
70815;BME280;58428;49.478;10.986;2023-05-16T08:30:29;98142.91;;;16.49;100.00
70815;BME280;58428;49.478;10.986;2023-05-16T08:32:54;98146.06;;;16.84;100.00
70815;BME280;58428;49.478;10.986;2023-05-16T08:35:19;98142.66;;;17.23;100.00
70815;BME280;58428;49.478;10.986;2023-05-16T08:37:45;98154.25;;;17.49;100.00
70815;BME280;58428;49.478;10.986;2023-05-16T08:40:11;98158.28;;;17.62;100.00
70815;BME280;58428;49.478;10.986;2023-05-16T08:42:38;98159.91;;;17.69;100.00
70815;BME280;58428;49.478;10.986;2023-05-16T08:45:05;98158.28;;;17.62;100.00
70815;BME280;58428;49.478;10.986;2023-05-16T08:47:32;98157.97;;;17.70;100.00
70815;BME280;58428;49.478;10.986;2023-05-16T08:50:02;98154.19;;;17.09;100.00
70815;BME280;58428;49.478;10.986;2023-05-16T08:52:29;98154.75;;;17.22;100.00
70815;BME280;58428;49.478;10.986;2023-05-16T08:55:01;98162.72;;;17.37;100.00
70815;BME280;58428;49.478;10.986;2023-05-16T08:57:30;98156.59;;;17.50;100.00
70815;BME280;58428;49.478;10.986;2023-05-16T08:59:57;98150.94;;;17.69;100.00
70815;BME280;58428;49.478;10.986;2023-05-16T09:02:23;98150.63;;;17.81;100.00
70815;BME280;58428;49.478;10.986;2023-05-16T09:04:48;98152.97;;;17.82;100.00
70815;BME280;58428;49.478;10.986;2023-05-16T09:07:14;98146.47;;;17.54;100.00
70815;BME280;58428;49.478;10.986;2023-05-16T09:09:42;98149.41;;;17.75;100.00
70815;BME280;58428;49.478;10.986;2023-05-16T09:12:07;98144.63;;;18.11;100.00
70815;BME280;58428;49.478;10.986;2023-05-16T09:14:33;98155.44;;;18.47;100.00
70815;BME280;58428;49.478;10.986;2023-05-16T09:19:50;98167.53;;;18.40;100.00
70815;BME280;58428;49.478;10.986;2023-05-16T09:22:18;98175.84;;;18.57;100.00
70815;BME280;58428;49.478;10.986;2023-05-16T09:24:44;98172.19;;;18.36;100.00
70815;BME280;58428;49.478;10.986;2023-05-16T09:27:11;98183.50;;;18.27;100.00
70815;BME280;58428;49.478;10.986;2023-05-16T09:29:40;98174.47;;;18.23;100.00
70815;BME280;58428;49.478;10.986;2023-05-16T09:32:12;98178.44;;;18.29;100.00
70815;BME280;58428;49.478;10.986;2023-05-16T09:34:46;98179.41;;;18.07;100.00
70815;BME280;58428;49.478;10.986;2023-05-16T09:37:17;98183.16;;;18.36;100.00
70815;BME280;58428;49.478;10.986;2023-05-16T09:39:46;98187.09;;;17.92;100.00
70815;BME280;58428;49.478;10.986;2023-05-16T09:42:13;98187.16;;;17.59;100.00
70815;BME280;58428;49.478;10.986;2023-05-16T09:44:39;98188.53;;;17.39;100.00
70815;BME280;58428;49.478;10.986;2023-05-16T09:47:05;98187.78;;;17.42;100.00
70815;BME280;58428;49.478;10.986;2023-05-16T09:49:31;98187.22;;;17.27;100.00
70815;BME280;58428;49.478;10.986;2023-05-16T09:52:01;98181.66;;;17.20;100.00
70815;BME280;58428;49.478;10.986;2023-05-16T09:54:33;98185.03;;;17.10;100.00
70815;BME280;58428;49.478;10.986;2023-05-16T09:57:00;98187.81;;;17.13;100.00
70815;BME280;58428;49.478;10.986;2023-05-16T09:59:30;98188.72;;;16.92;100.00
70815;BME280;58428;49.478;10.986;2023-05-16T10:01:58;98187.88;;;16.88;100.00
70815;BME280;58428;49.478;10.986;2023-05-16T10:04:25;98202.59;;;17.09;100.00
70815;BME280;58428;49.478;10.986;2023-05-16T10:06:55;98189.09;;;16.90;100.00
70815;BME280;58428;49.478;10.986;2023-05-16T10:09:22;98188.09;;;16.47;100.00
70815;BME280;58428;49.478;10.986;2023-05-16T10:11:48;98194.25;;;16.40;100.00
70815;BME280;58428;49.478;10.986;2023-05-16T10:14:17;98184.13;;;16.41;100.00
70815;BME280;58428;49.478;10.986;2023-05-16T10:16:46;98177.41;;;16.64;100.00
70815;BME280;58428;49.478;10.986;2023-05-16T10:19:11;98177.09;;;16.98;100.00
70815;BME280;58428;49.478;10.986;2023-05-16T10:21:39;98173.75;;;17.15;100.00
70815;BME280;58428;49.478;10.986;2023-05-16T10:24:10;98173.56;;;17.27;100.00
70815;BME280;58428;49.478;10.986;2023-05-16T10:26:36;98172.06;;;17.33;100.00
70815;BME280;58428;49.478;10.986;2023-05-16T10:29:03;98166.88;;;17.60;100.00
70815;BME280;58428;49.478;10.986;2023-05-16T10:31:29;98161.47;;;18.10;100.00
70815;BME280;58428;49.478;10.986;2023-05-16T10:33:56;98153.16;;;18.60;100.00
70815;BME280;58428;49.478;10.986;2023-05-16T10:36:22;98146.22;;;18.83;100.00
70815;BME280;58428;49.478;10.986;2023-05-16T10:38:49;98149.22;;;18.57;100.00
70815;BME280;58428;49.478;10.986;2023-05-16T10:41:15;98141.59;;;18.27;100.00
70815;BME280;58428;49.478;10.986;2023-05-16T10:43:44;98144.63;;;18.08;100.00
70815;BME280;58428;49.478;10.986;2023-05-16T10:46:22;98151.03;;;18.29;100.00
70815;BME280;58428;49.478;10.986;2023-05-16T10:48:49;98137.88;;;18.55;100.00
70815;BME280;58428;49.478;10.986;2023-05-16T10:53:47;98145.56;;;18.33;100.00
70815;BME280;58428;49.478;10.986;2023-05-16T10:56:21;98161.25;;;18.36;100.00
70815;BME280;58428;49.478;10.986;2023-05-16T10:58:47;98160.09;;;18.40;100.00
70815;BME280;58428;49.478;10.986;2023-05-16T11:01:24;98165.53;;;18.33;100.00
70815;BME280;58428;49.478;10.986;2023-05-16T11:06:22;98171.91;;;18.51;100.00
70815;BME280;58428;49.478;10.986;2023-05-16T11:16:59;98169.69;;;18.77;100.00
70815;BME280;58428;49.478;10.986;2023-05-16T11:27:29;98163.13;;;18.25;100.00
70815;BME280;58428;49.478;10.986;2023-05-16T11:30:15;98165.84;;;18.21;100.00
70815;BME280;58428;49.478;10.986;2023-05-16T11:32:44;98168.22;;;18.26;100.00
70815;BME280;58428;49.478;10.986;2023-05-16T11:35:11;98166.03;;;18.49;100.00
70815;BME280;58428;49.478;10.986;2023-05-16T11:37:39;98159.94;;;18.83;100.00
70815;BME280;58428;49.478;10.986;2023-05-16T11:40:05;98162.97;;;18.68;100.00
70815;BME280;58428;49.478;10.986;2023-05-16T11:42:43;98159.38;;;18.50;100.00
70815;BME280;58428;49.478;10.986;2023-05-16T11:45:09;98158.84;;;18.31;100.00
70815;BME280;58428;49.478;10.986;2023-05-16T11:47:40;98170.16;;;18.22;100.00
70815;BME280;58428;49.478;10.986;2023-05-16T11:50:12;98162.38;;;17.81;100.00
70815;BME280;58428;49.478;10.986;2023-05-16T11:52:42;98177.19;;;17.37;100.00
70815;BME280;58428;49.478;10.986;2023-05-16T11:55:08;98181.66;;;17.20;100.00
70815;BME280;58428;49.478;10.986;2023-05-16T11:57:38;98192.06;;;17.07;100.00
70815;BME280;58428;49.478;10.986;2023-05-16T12:00:19;98178.94;;;16.91;100.00
70815;BME280;58428;49.478;10.986;2023-05-16T12:02:45;98174.56;;;16.83;100.00
70815;BME280;58428;49.478;10.986;2023-05-16T12:05:15;98177.81;;;16.95;100.00
70815;BME280;58428;49.478;10.986;2023-05-16T12:07:47;98176.06;;;17.13;100.00
70815;BME280;58428;49.478;10.986;2023-05-16T12:10:14;98169.13;;;17.15;100.00
70815;BME280;58428;49.478;10.986;2023-05-16T12:12:43;98175.22;;;17.34;100.00
70815;BME280;58428;49.478;10.986;2023-05-16T12:15:10;98173.13;;;17.61;100.00
70815;BME280;58428;49.478;10.986;2023-05-16T12:17:38;98171.88;;;17.94;100.00
70815;BME280;58428;49.478;10.986;2023-05-16T12:20:07;98163.91;;;18.22;100.00
70815;BME280;58428;49.478;10.986;2023-05-16T12:22:47;98160.22;;;18.04;100.00
70815;BME280;58428;49.478;10.986;2023-05-16T12:25:27;98163.84;;;18.15;100.00
70815;BME280;58428;49.478;10.986;2023-05-16T12:27:54;98173.09;;;18.00;100.00
70815;BME280;58428;49.478;10.986;2023-05-16T12:30:25;98178.06;;;17.88;100.00
70815;BME280;58428;49.478;10.986;2023-05-16T12:32:58;98170.75;;;17.59;100.00
70815;BME280;58428;49.478;10.986;2023-05-16T12:35:25;98177.06;;;17.67;100.00
70815;BME280;58428;49.478;10.986;2023-05-16T12:37:54;98166.69;;;17.86;100.00
70815;BME280;58428;49.478;10.986;2023-05-16T12:40:20;98170.16;;;17.79;100.00
70815;BME280;58428;49.478;10.986;2023-05-16T12:42:50;98167.78;;;18.21;100.00
70815;BME280;58428;49.478;10.986;2023-05-16T12:45:17;98174.75;;;18.68;100.00
70815;BME280;58428;49.478;10.986;2023-05-16T12:47:43;98178.19;;;18.55;100.00
70815;BME280;58428;49.478;10.986;2023-05-16T12:50:18;98185.88;;;18.32;100.00
70815;BME280;58428;49.478;10.986;2023-05-16T12:53:03;98167.94;;;18.42;100.00
70815;BME280;58428;49.478;10.986;2023-05-16T12:55:30;98178.91;;;18.45;100.00
70815;BME280;58428;49.478;10.986;2023-05-16T12:57:57;98183.19;;;18.39;100.00
70815;BME280;58428;49.478;10.986;2023-05-16T13:00:25;98182.31;;;18.28;100.00
70815;BME280;58428;49.478;10.986;2023-05-16T13:02:50;98181.56;;;18.35;100.00
70815;BME280;58428;49.478;10.986;2023-05-16T13:05:16;98183.16;;;18.36;100.00
70815;BME280;58428;49.478;10.986;2023-05-16T13:07:42;98188.28;;;18.44;100.00
70815;BME280;58428;49.478;10.986;2023-05-16T13:10:09;98188.97;;;18.27;100.00
70815;BME280;58428;49.478;10.986;2023-05-16T13:12:37;98199.03;;;18.13;100.00
70815;BME280;58428;49.478;10.986;2023-05-16T13:15:04;98194.50;;;17.91;100.00